Time;durP1;ratioP1;P1;durP2;ratioP2;P2;SDS_P1;SDS_P2;PMS_P1;PMS_P2;Temp;Humidity;BMP_temperature;BMP_pressure;BME280_temperature;BME280_humidity;BME280_pressure;Samples;Min_cycle;Max_cycle;Signal;HPM_P1;HPM_P2
2024/04/02 00:00:42;;;;;;;0.10;0.10;;;;;;;10.17;71.76;99130.63;7362552;19;20024;-63
2024/04/02 00:03:09;;;;;;;0.10;0.10;;;;;;;10.24;72.17;99133.84;7363062;19;20006;-63
2024/04/02 00:05:36;;;;;;;0.10;0.10;;;;;;;10.23;71.94;99137.34;7350414;19;20102;-63
2024/04/02 00:08:02;;;;;;;0.10;0.10;;;;;;;10.22;72.12;99141.72;7360070;19;20006;-63
2024/04/02 00:10:28;;;;;;;0.03;0.03;;;;;;;10.17;72.17;99135.00;7360924;19;20018;-63
2024/04/02 00:12:54;;;;;;;0.03;0.03;;;;;;;10.20;71.93;99132.28;7355434;19;20003;-63
2024/04/02 00:15:19;;;;;;;0.10;0.10;;;;;;;10.18;71.98;99134.94;7364045;19;20003;-63
2024/04/02 00:17:45;;;;;;;0.10;0.10;;;;;;;10.17;72.32;99142.84;7363202;19;20442;-63
2024/04/02 00:20:13;;;;;;;0.10;0.10;;;;;;;10.16;72.19;99133.31;7358664;19;20093;-63
2024/04/02 00:22:41;;;;;;;0.10;0.10;;;;;;;10.14;71.73;99139.47;7361906;19;20009;-63
2024/04/02 00:25:07;;;;;;;0.00;0.00;;;;;;;10.09;72.26;99136.22;7365018;19;20025;-63
2024/04/02 00:27:32;;;;;;;0.10;0.10;;;;;;;9.90;72.00;99109.28;7360666;19;20384;-63
2024/04/02 00:29:58;;;;;;;0.10;0.10;;;;;;;10.02;72.32;99129.59;7362809;19;19998;-63
2024/04/02 00:32:24;;;;;;;0.10;0.10;;;;;;;9.98;72.26;99138.44;7357339;19;20684;-62
2024/04/02 00:34:49;;;;;;;0.10;0.10;;;;;;;9.92;72.26;99127.47;7361750;19;20767;-63
2024/04/02 00:37:15;;;;;;;0.10;0.10;;;;;;;9.90;72.08;99137.13;7364593;19;19998;-63
2024/04/02 00:39:43;;;;;;;0.10;0.10;;;;;;;9.83;72.01;99131.31;7363478;19;20011;-64
2024/04/02 00:42:08;;;;;;;0.03;0.03;;;;;;;9.70;71.94;99117.16;7358761;19;20745;-63
2024/04/02 00:44:34;;;;;;;0.00;0.00;;;;;;;9.72;72.31;99137.00;7362949;19;20018;-63
2024/04/02 00:46:59;;;;;;;0.10;0.10;;;;;;;9.62;71.90;99131.34;7360805;19;20002;-63
2024/04/02 00:49:25;;;;;;;0.10;0.10;;;;;;;9.52;72.02;99130.06;7356948;19;19999;-63
2024/04/02 00:51:51;;;;;;;0.00;0.00;;;;;;;9.52;72.20;99140.50;7357720;19;20662;-64
2024/04/02 00:54:17;;;;;;;0.10;0.10;;;;;;;9.34;72.27;99120.47;7359836;19;20006;-63
2024/04/02 00:56:44;;;;;;;0.00;0.00;;;;;;;9.45;72.47;99148.66;7362018;19;20002;-62
2024/04/02 00:59:09;;;;;;;0.10;0.10;;;;;;;9.37;72.09;99146.34;7360499;19;21046;-63
2024/04/02 01:01:35;;;;;;;0.10;0.10;;;;;;;9.32;72.33;99158.72;7361291;19;20003;-63
2024/04/02 01:04:01;;;;;;;0.10;0.10;;;;;;;9.28;72.28;99157.19;7363027;19;20025;-63
2024/04/02 01:06:26;;;;;;;0.10;0.10;;;;;;;9.21;72.38;99155.75;7360015;19;20553;-63
2024/04/02 01:08:52;;;;;;;0.00;0.00;;;;;;;9.02;72.71;99129.59;7358242;19;20002;-63
2024/04/02 01:11:17;;;;;;;0.00;0.00;;;;;;;8.80;72.34;99101.88;7354990;19;20062;-63
2024/04/02 01:13:43;;;;;;;0.10;0.10;;;;;;;9.05;72.74;99150.31;7360208;19;20003;-63
2024/04/02 01:16:11;;;;;;;0.10;0.10;;;;;;;8.98;72.41;99154.94;7362417;19;19994;-63
2024/04/02 01:18:37;;;;;;;0.10;0.10;;;;;;;8.97;72.64;99163.66;7363194;19;19998;-63
2024/04/02 01:21:02;;;;;;;0.10;0.10;;;;;;;8.91;72.55;99158.69;7360963;19;20009;-63
2024/04/02 01:23:28;;;;;;;0.10;0.10;;;;;;;8.88;72.86;99163.19;7354852;19;20002;-63
2024/04/02 01:25:53;;;;;;;0.08;0.08;;;;;;;8.82;72.86;99164.28;7358470;19;20011;-63
2024/04/02 01:28:19;;;;;;;0.10;0.10;;;;;;;8.62;72.90;99141.66;7359710;19;20002;-63
2024/04/02 01:30:44;;;;;;;0.10;0.10;;;;;;;8.76;73.26;99169.72;7361808;19;21397;-64
2024/04/02 01:33:09;;;;;;;0.10;0.10;;;;;;;8.70;73.50;99175.16;7360004;19;20006;-63
2024/04/02 01:35:35;;;;;;;0.10;0.10;;;;;;;8.66;73.30;99171.00;7360325;19;20414;-63
2024/04/02 01:38:00;;;;;;;0.10;0.10;;;;;;;8.65;73.53;99187.50;7361144;19;20010;-63
2024/04/02 01:40:26;;;;;;;0.10;0.10;;;;;;;8.62;73.67;99187.63;7360106;19;20002;-62
2024/04/02 01:42:51;;;;;;;0.00;0.00;;;;;;;8.57;73.30;99186.06;7358824;19;20002;-63
2024/04/02 01:45:16;;;;;;;0.10;0.10;;;;;;;8.53;73.67;99194.91;7355444;19;20089;-63
2024/04/02 01:47:42;;;;;;;0.00;0.00;;;;;;;8.31;73.58;99171.44;7359185;19;20497;-63
2024/04/02 01:50:07;;;;;;;0.08;0.08;;;;;;;8.45;73.38;99196.94;7360805;19;20421;-63
2024/04/02 01:52:32;;;;;;;0.10;0.10;;;;;;;8.30;73.54;99181.88;7358679;19;20015;-63
2024/04/02 01:54:58;;;;;;;0.10;0.10;;;;;;;8.22;73.74;99173.53;7357185;19;20006;-63
2024/04/02 01:57:23;;;;;;;0.10;0.10;;;;;;;8.35;73.31;99205.09;7359674;19;20436;-63
2024/04/02 01:59:49;;;;;;;0.10;0.10;;;;;;;8.07;73.83;99170.59;7357596;19;20019;-63
2024/04/02 02:02:14;;;;;;;0.10;0.10;;;;;;;8.19;73.84;99197.03;7364211;19;20043;-63
2024/04/02 02:04:39;;;;;;;0.10;0.10;;;;;;;8.06;74.00;99178.44;7363232;19;20009;-63
2024/04/02 02:07:05;;;;;;;0.00;0.00;;;;;;;8.21;74.06;99210.81;7359285;19;20006;-62
2024/04/02 02:09:30;;;;;;;0.10;0.10;;;;;;;8.19;73.85;99210.03;7362546;19;20022;-63
2024/04/02 02:11:55;;;;;;;0.10;0.10;;;;;;;8.16;73.95;99210.13;7363354;19;20010;-63
2024/04/02 02:14:21;;;;;;;0.10;0.10;;;;;;;8.13;74.09;99208.50;7360046;19;20465;-63
2024/04/02 02:16:49;;;;;;;0.03;0.03;;;;;;;8.03;73.79;99197.59;7363713;19;20039;-63
2024/04/02 02:19:14;;;;;;;0.10;0.10;;;;;;;8.03;74.08;99192.41;7362728;19;20025;-63
2024/04/02 02:21:40;;;;;;;0.10;0.10;;;;;;;7.95;73.94;99190.97;7358659;19;20002;-63
2024/04/02 02:24:05;;;;;;;0.10;0.10;;;;;;;8.03;74.31;99209.75;7363181;19;20010;-63
2024/04/02 02:26:32;;;;;;;0.00;0.00;;;;;;;7.99;74.13;99210.75;7362512;19;20078;-62
2024/04/02 02:28:58;;;;;;;0.10;0.10;;;;;;;7.98;74.08;99211.66;7362195;19;20647;-63
2024/04/02 02:31:23;;;;;;;0.10;0.10;;;;;;;7.93;73.83;99204.03;7362200;19;20564;-63
2024/04/02 02:33:48;;;;;;;0.10;0.10;;;;;;;7.89;74.11;99205.03;7360775;19;19998;-63
2024/04/02 02:36:14;;;;;;;0.00;0.00;;;;;;;7.82;74.05;99203.56;7358329;19;20002;-63
2024/04/02 02:38:39;;;;;;;0.10;0.10;;;;;;;7.88;74.30;99211.16;7358277;19;20006;-63
2024/04/02 02:41:05;;;;;;;0.05;0.05;;;;;;;7.82;74.17;99211.38;7359174;19;20358;-63
2024/04/02 02:43:30;;;;;;;0.10;0.10;;;;;;;7.83;74.29;99215.66;7353737;19;20006;-63
2024/04/02 02:45:56;;;;;;;0.08;0.08;;;;;;;7.80;74.45;99215.75;7369734;19;20010;-63
2024/04/02 02:48:21;;;;;;;0.10;0.10;;;;;;;7.75;74.07;99204.66;7366569;19;21038;-63
2024/04/02 02:50:46;;;;;;;0.00;0.00;;;;;;;7.56;74.08;99185.47;7365594;19;20003;-63
2024/04/02 02:53:12;;;;;;;0.03;0.03;;;;;;;7.73;74.12;99216.88;7365051;19;20441;-62
2024/04/02 02:55:38;;;;;;;0.10;0.10;;;;;;;7.68;74.23;99213.59;7370250;19;20106;-63
2024/04/02 02:58:03;;;;;;;0.05;0.05;;;;;;;7.63;74.27;99225.91;7365986;19;20002;-63
2024/04/02 03:00:29;;;;;;;0.10;0.10;;;;;;;7.65;74.61;99229.28;7366687;19;20008;-64
2024/04/02 03:02:54;;;;;;;0.00;0.00;;;;;;;7.63;74.22;99231.09;7368031;19;20049;-63
2024/04/02 03:05:20;;;;;;;0.10;0.10;;;;;;;7.61;74.62;99227.72;7357011;19;20074;-63
2024/04/02 03:07:45;;;;;;;0.10;0.10;;;;;;;7.53;74.29;99221.00;7370194;19;20739;-63
2024/04/02 03:10:11;;;;;;;0.00;0.00;;;;;;;7.51;74.45;99227.16;7361716;19;20025;-62
2024/04/02 03:12:36;;;;;;;0.10;0.10;;;;;;;7.37;74.21;99206.84;7367656;19;20003;-62
2024/04/02 03:15:02;;;;;;;0.10;0.10;;;;;;;7.49;74.46;99235.00;7340729;19;20772;-62
2024/04/02 03:17:28;;;;;;;0.00;0.00;;;;;;;7.47;74.59;99235.97;7370115;19;19998;-63
2024/04/02 03:19:53;;;;;;;0.00;0.00;;;;;;;7.42;74.59;99237.88;7357662;19;20470;-63
2024/04/02 03:22:18;;;;;;;0.03;0.03;;;;;;;7.37;74.26;99230.22;7367258;19;20007;-63
2024/04/02 03:24:44;;;;;;;0.08;0.08;;;;;;;7.39;74.69;99254.38;7368970;19;20006;-63
2024/04/02 03:27:10;;;;;;;0.10;0.10;;;;;;;7.32;74.18;99226.94;7360499;19;20628;-63
2024/04/02 03:29:35;;;;;;;0.10;0.10;;;;;;;7.32;74.40;99239.91;7370716;19;20030;-63
2024/04/02 03:32:00;;;;;;;0.10;0.10;;;;;;;7.31;74.77;99242.56;7364329;19;20046;-63
2024/04/02 03:34:27;;;;;;;0.10;0.10;;;;;;;7.14;74.50;99223.16;7368509;19;20011;-63
2024/04/02 03:36:53;;;;;;;0.00;0.00;;;;;;;7.20;74.38;99240.31;7370954;19;20522;-63
2024/04/02 03:39:19;;;;;;;0.10;0.10;;;;;;;7.26;74.45;99255.69;7366442;19;20053;-63
2024/04/02 03:41:44;;;;;;;0.05;0.05;;;;;;;7.24;74.34;99254.88;7356497;19;20738;-63
2024/04/02 03:44:09;;;;;;;0.10;0.10;;;;;;;7.21;74.38;99255.00;7367871;19;20003;-63
2024/04/02 03:46:35;;;;;;;0.00;0.00;;;;;;;7.17;74.25;99264.63;7368080;19;19998;-62
2024/04/02 03:49:00;;;;;;;0.00;0.00;;;;;;;7.15;74.49;99263.84;7366332;19;19997;-63
2024/04/02 03:51:26;;;;;;;0.00;0.00;;;;;;;7.14;74.22;99263.84;7369491;19;20419;-63
2024/04/02 03:53:51;;;;;;;0.00;0.00;;;;;;;7.11;74.34;99264.81;7366859;19;20002;-63
2024/04/02 03:56:16;;;;;;;0.00;0.00;;;;;;;7.08;74.41;99264.91;7364397;19;20007;-61
2024/04/02 03:58:42;;;;;;;0.00;0.00;;;;;;;7.03;74.16;99256.41;7366289;19;20030;-63
2024/04/02 04:01:10;;;;;;;0.10;0.10;;;;;;;7.03;74.76;99267.63;7367460;19;20022;-63
2024/04/02 04:03:36;;;;;;;0.08;0.08;;;;;;;7.01;74.30;99268.59;7345790;19;20096;-63
2024/04/02 04:06:05;;;;;;;0.10;0.10;;;;;;;6.82;74.31;99234.56;7367974;19;20071;-62
2024/04/02 04:08:32;;;;;;;0.05;0.05;;;;;;;6.88;74.43;99257.72;7361545;19;19998;-61
2024/04/02 04:10:58;;;;;;;0.03;0.03;;;;;;;6.94;74.18;99277.44;7367542;19;20476;-63
2024/04/02 04:13:24;;;;;;;0.10;0.10;;;;;;;6.92;74.10;99279.25;7359631;19;20504;-62
2024/04/02 04:15:54;;;;;;;0.10;0.10;;;;;;;6.75;74.33;99261.63;7366874;19;20059;-63
2024/04/02 04:18:21;;;;;;;0.00;0.00;;;;;;;6.84;74.05;99271.69;7367672;19;20592;-62
2024/04/02 04:21:02;;;;;;;0.00;0.00;;;;;;;6.80;74.28;99270.13;7363298;19;20778;-63
2024/04/02 04:23:28;;;;;;;0.10;0.10;;;;;;;6.83;74.44;99290.75;7364129;19;20022;-62
2024/04/02 04:26:07;;;;;;;0.10;0.10;;;;;;;6.82;74.49;99289.06;7365669;19;20052;-63
2024/04/02 04:28:32;;;;;;;0.10;0.10;;;;;;;6.74;74.92;99288.44;7364275;19;20007;-63
2024/04/02 04:31:00;;;;;;;0.03;0.03;;;;;;;6.76;74.87;99299.63;7367694;19;20110;-63
2024/04/02 04:33:26;;;;;;;0.10;0.10;;;;;;;6.77;75.12;99303.91;7366562;19;20011;-63
2024/04/02 04:35:53;;;;;;;0.10;0.10;;;;;;;6.66;74.75;99288.69;7364792;19;20006;-63
2024/04/02 04:38:19;;;;;;;0.10;0.10;;;;;;;6.73;74.66;99299.72;7363533;19;20026;-63
2024/04/02 04:40:45;;;;;;;0.10;0.10;;;;;;;6.68;74.63;99299.00;7362132;19;20711;-63
2024/04/02 04:43:13;;;;;;;0.10;0.10;;;;;;;6.70;74.89;99305.00;7364480;19;20009;-63
2024/04/02 04:45:38;;;;;;;0.00;0.00;;;;;;;6.64;74.96;99305.16;7365631;19;20021;-63
2024/04/02 04:48:08;;;;;;;0.10;0.10;;;;;;;6.65;74.80;99314.66;7366116;19;20075;-62
2024/04/02 04:50:36;;;;;;;0.10;0.10;;;;;;;6.53;74.77;99302.03;7365378;19;20026;-63
2024/04/02 04:53:02;;;;;;;0.10;0.10;;;;;;;6.52;74.73;99305.53;7363242;19;19998;-63
2024/04/02 04:55:30;;;;;;;0.00;0.00;;;;;;;6.61;74.79;99326.88;7356988;19;19999;-63
2024/04/02 04:57:57;;;;;;;0.10;0.10;;;;;;;6.60;74.83;99332.09;7364512;19;20010;-63
2024/04/02 05:00:22;;;;;;;0.10;0.10;;;;;;;6.59;74.97;99332.97;7351934;19;20015;-63
2024/04/02 05:02:47;;;;;;;0.10;0.10;;;;;;;6.55;74.66;99331.38;7364469;19;20021;-63
2024/04/02 05:05:13;;;;;;;0.05;0.05;;;;;;;6.41;74.11;99316.22;7363015;19;20624;-63
2024/04/02 05:07:54;;;;;;;0.00;0.00;;;;;;;6.50;74.25;99334.94;7360563;19;20002;-63
2024/04/02 05:10:19;;;;;;;0.00;0.00;;;;;;;6.45;74.72;99329.03;7363397;19;20033;-63
2024/04/02 05:12:44;;;;;;;0.00;0.00;;;;;;;6.46;74.64;99338.50;7364050;19;20006;-63
2024/04/02 05:15:10;;;;;;;0.10;0.10;;;;;;;6.43;74.44;99343.78;7361413;19;19994;-63
2024/04/02 05:17:35;;;;;;;0.00;0.00;;;;;;;6.39;74.51;99342.19;7364893;19;20069;-62
2024/04/02 05:20:00;;;;;;;0.10;0.10;;;;;;;6.38;74.44;99355.16;7363542;19;20002;-63
2024/04/02 05:22:26;;;;;;;0.10;0.10;;;;;;;6.26;74.55;99346.00;7367528;19;19998;-63
2024/04/02 05:24:51;;;;;;;0.10;0.10;;;;;;;6.33;74.59;99363.06;7360508;19;20101;-63
2024/04/02 05:27:16;;;;;;;0.10;0.10;;;;;;;6.31;74.80;99357.09;7363685;19;20013;-63
2024/04/02 05:29:42;;;;;;;0.00;0.00;;;;;;;6.29;74.81;99360.63;7366179;19;20031;-63
2024/04/02 05:32:07;;;;;;;0.00;0.00;;;;;;;6.30;74.97;99362.31;7362043;19;20014;-62
2024/04/02 05:34:33;;;;;;;0.10;0.10;;;;;;;6.08;74.84;99331.75;7365009;19;20010;-63
2024/04/02 05:36:58;;;;;;;0.10;0.10;;;;;;;6.28;74.84;99362.34;7362305;19;20455;-63
2024/04/02 05:39:24;;;;;;;0.10;0.10;;;;;;;6.32;75.00;99361.38;7364795;19;20010;-63
2024/04/02 05:41:49;;;;;;;0.08;0.08;;;;;;;6.34;74.76;99366.53;7358516;19;20774;-63
2024/04/02 05:44:15;;;;;;;0.10;0.10;;;;;;;6.34;75.10;99364.78;7363090;19;20006;-63
2024/04/02 05:46:40;;;;;;;0.10;0.10;;;;;;;6.34;74.94;99369.97;7361446;19;20438;-63
2024/04/02 05:49:05;;;;;;;0.10;0.10;;;;;;;6.37;75.05;99376.81;7362978;19;19998;-62
2024/04/02 05:51:31;;;;;;;0.10;0.10;;;;;;;6.40;75.06;99375.00;7363071;19;20097;-63
2024/04/02 05:53:56;;;;;;;0.10;0.10;;;;;;;6.42;75.14;99373.19;7365552;19;20014;-63
2024/04/02 05:56:21;;;;;;;0.10;0.10;;;;;;;6.44;74.71;99381.81;7354894;19;20002;-63
2024/04/02 05:58:47;;;;;;;0.10;0.10;;;;;;;6.47;75.12;99370.47;7357250;19;20444;-63
2024/04/02 06:01:12;;;;;;;0.10;0.10;;;;;;;6.47;74.93;99371.31;7362493;19;20045;-63
2024/04/02 06:03:38;;;;;;;0.10;0.10;;;;;;;6.50;74.66;99373.00;7360943;19;20011;-62
2024/04/02 06:06:03;;;;;;;0.00;0.00;;;;;;;6.56;74.91;99384.94;7363103;19;20454;-62
2024/04/02 06:08:29;;;;;;;0.00;0.00;;;;;;;6.59;74.92;99390.03;7363531;19;19991;-63
2024/04/02 06:10:54;;;;;;;0.10;0.10;;;;;;;6.59;74.88;99387.44;7363173;19;20042;-63
2024/04/02 06:13:20;;;;;;;0.10;0.10;;;;;;;6.63;74.85;99399.44;7361707;19;20736;-63
2024/04/02 06:15:45;;;;;;;0.00;0.00;;;;;;;6.63;74.67;99386.47;7363605;19;20007;-60
2024/04/02 06:18:10;;;;;;;0.10;0.10;;;;;;;6.68;74.87;99389.78;7362928;19;19995;-63
2024/04/02 06:20:36;;;;;;;0.00;0.00;;;;;;;6.67;74.74;99388.09;7368622;19;20066;-63
2024/04/02 06:23:01;;;;;;;0.10;0.10;;;;;;;6.50;74.07;99366.06;7367096;19;19998;-62
2024/04/02 06:25:27;;;;;;;0.00;0.00;;;;;;;6.66;74.63;99381.22;7371614;19;20014;-63
2024/04/02 06:27:52;;;;;;;0.10;0.10;;;;;;;6.16;74.07;99298.72;7367754;19;20782;-63
2024/04/02 06:30:18;;;;;;;0.10;0.10;;;;;;;6.65;74.16;99376.91;7371990;19;20679;-63
2024/04/02 06:32:44;;;;;;;0.10;0.10;;;;;;;6.62;74.45;99379.59;7370408;19;20089;-63
2024/04/02 06:35:09;;;;;;;0.10;0.10;;;;;;;6.52;74.43;99367.75;7366857;19;20074;-63
2024/04/02 06:37:35;;;;;;;0.10;0.10;;;;;;;6.58;74.47;99383.16;7366558;19;21306;-62
2024/04/02 06:40:01;;;;;;;0.08;0.08;;;;;;;6.60;74.48;99389.16;7369362;19;19999;-63
2024/04/02 06:42:26;;;;;;;0.10;0.10;;;;;;;6.13;74.56;99318.69;7365987;19;20026;-63
2024/04/02 06:44:54;;;;;;;0.10;0.10;;;;;;;6.57;74.25;99397.88;7367699;19;20010;-63
2024/04/02 06:47:20;;;;;;;0.03;0.03;;;;;;;6.53;74.56;99395.41;7363470;19;20890;-63
2024/04/02 06:49:45;;;;;;;0.00;0.00;;;;;;;6.54;74.29;99408.34;7367311;19;19998;-63
2024/04/02 06:52:10;;;;;;;0.10;0.10;;;;;;;6.49;74.56;99399.84;7366218;19;20034;-63
2024/04/02 06:54:36;;;;;;;0.03;0.03;;;;;;;6.52;74.70;99414.44;7367759;19;20026;-63
2024/04/02 06:57:01;;;;;;;0.10;0.10;;;;;;;6.16;74.44;99354.91;7362651;19;20027;-63
2024/04/02 06:59:27;;;;;;;0.08;0.08;;;;;;;6.50;74.22;99412.75;7368254;19;20006;-62
2024/04/02 07:01:52;;;;;;;0.10;0.10;;;;;;;6.36;74.49;99396.69;7362244;19;21647;-63
2024/04/02 07:04:17;;;;;;;0.08;0.08;;;;;;;6.47;74.47;99418.00;7360173;19;20007;-63
2024/04/02 07:06:43;;;;;;;0.00;0.00;;;;;;;6.49;74.76;99421.44;7364425;19;20082;-63
2024/04/02 07:09:08;;;;;;;0.00;0.00;;;;;;;6.50;74.62;99423.13;7365645;19;20760;-63
2024/04/02 07:11:34;;;;;;;0.00;0.00;;;;;;;6.55;74.73;99424.75;7357875;19;20493;-61
2024/04/02 07:14:01;;;;;;;0.10;0.10;;;;;;;6.45;74.92;99399.06;7363914;19;20002;-63
2024/04/02 07:16:26;;;;;;;0.10;0.10;;;;;;;6.58;74.57;99419.47;7366802;19;20471;-63
2024/04/02 07:18:52;;;;;;;0.00;0.00;;;;;;;6.45;74.66;99396.47;7365838;19;20007;-63
2024/04/02 07:21:17;;;;;;;0.10;0.10;;;;;;;6.64;74.38;99419.28;7364898;19;20034;-63
2024/04/02 07:23:43;;;;;;;0.10;0.10;;;;;;;6.65;74.47;99421.03;7359845;19;20005;-63
2024/04/02 07:26:08;;;;;;;0.10;0.10;;;;;;;6.72;74.51;99428.56;7367339;19;20007;-63
2024/04/02 07:28:34;;;;;;;0.00;0.00;;;;;;;6.65;74.43;99405.44;7367032;19;19998;-61
2024/04/02 07:30:59;;;;;;;0.10;0.10;;;;;;;6.71;74.60;99410.47;7365392;19;20419;-63
2024/04/02 07:33:24;;;;;;;0.10;0.10;;;;;;;6.83;74.48;99430.88;7369045;19;20013;-63
2024/04/02 07:35:55;;;;;;;0.00;0.00;;;;;;;6.88;74.07;99436.78;7364303;19;20010;-63
2024/04/02 07:38:21;;;;;;;0.10;0.10;;;;;;;6.91;74.58;99428.94;7369338;19;20011;-63
2024/04/02 07:40:46;;;;;;;0.10;0.10;;;;;;;6.95;74.42;99427.94;7359907;19;20078;-63
2024/04/02 07:43:11;;;;;;;0.00;0.00;;;;;;;6.97;74.11;99423.56;7364858;19;20011;-63
2024/04/02 07:45:38;;;;;;;0.00;0.00;;;;;;;7.02;73.96;99421.69;7362874;19;20066;-63
2024/04/02 07:48:04;;;;;;;0.10;0.10;;;;;;;6.93;74.19;99406.38;7359850;19;20009;-61
2024/04/02 07:50:30;;;;;;;0.10;0.10;;;;;;;7.11;74.02;99432.69;7365795;19;20764;-63
2024/04/02 07:52:56;;;;;;;0.05;0.05;;;;;;;7.14;74.25;99435.19;7362679;19;20010;-62
2024/04/02 07:55:21;;;;;;;0.00;0.00;;;;;;;7.18;73.86;99431.63;7366716;19;20800;-62
2024/04/02 07:57:47;;;;;;;0.10;0.10;;;;;;;7.07;74.30;99398.19;7359114;19;20005;-63
2024/04/02 08:00:13;;;;;;;0.10;0.10;;;;;;;7.24;74.11;99421.91;7366958;19;20022;-62
2024/04/02 08:02:38;;;;;;;0.05;0.05;;;;;;;7.33;74.22;99441.56;7361942;19;20475;-62
2024/04/02 08:05:04;;;;;;;0.10;0.10;;;;;;;7.37;73.87;99432.78;7362547;19;20016;-61
2024/04/02 08:07:29;;;;;;;0.08;0.08;;;;;;;7.42;73.71;99436.09;7361316;19;20372;-62
2024/04/02 08:09:55;;;;;;;0.10;0.10;;;;;;;7.46;73.78;99426.47;7364410;19;20011;-62
2024/04/02 08:12:20;;;;;;;0.10;0.10;;;;;;;7.41;73.87;99408.44;7364501;19;20003;-62
2024/04/02 08:14:46;;;;;;;0.10;0.10;;;;;;;7.42;74.06;99398.88;7365080;19;20022;-62
2024/04/02 08:17:11;;;;;;;0.10;0.10;;;;;;;7.63;73.35;99431.97;7363438;19;20006;-63
2024/04/02 08:19:37;;;;;;;0.00;0.00;;;;;;;7.68;73.89;99426.66;7360427;19;20022;-63
2024/04/02 08:22:02;;;;;;;0.10;0.10;;;;;;;7.74;73.88;99427.28;7362652;19;20026;-63
2024/04/02 08:24:28;;;;;;;0.10;0.10;;;;;;;7.73;73.71;99409.16;7365844;19;20005;-62
2024/04/02 08:26:53;;;;;;;0.10;0.10;;;;;;;7.88;73.69;99433.81;7364010;19;20385;-62
2024/04/02 08:29:19;;;;;;;0.08;0.08;;;;;;;7.94;73.48;99437.06;7368003;19;20016;-62
2024/04/02 08:31:44;;;;;;;0.10;0.10;;;;;;;7.98;73.40;99433.47;7364581;19;20786;-62
2024/04/02 08:34:10;;;;;;;0.10;0.10;;;;;;;8.15;73.47;99437.25;7366458;19;20019;-63
2024/04/02 08:36:37;;;;;;;0.10;0.10;;;;;;;8.33;73.16;99441.84;7363864;19;20537;-63
2024/04/02 08:39:03;;;;;;;0.10;0.10;;;;;;;8.53;72.77;99444.66;7363603;19;20608;-62
2024/04/02 08:41:28;;;;;;;0.10;0.10;;;;;;;8.73;72.50;99435.31;7364569;19;20006;-62
2024/04/02 08:43:58;;;;;;;0.00;0.00;;;;;;;9.00;72.59;99444.72;7362316;19;20654;-63
2024/04/02 08:46:27;;;;;;;0.10;0.10;;;;;;;9.25;72.01;99438.63;7366419;19;20007;-63
2024/04/02 08:48:55;;;;;;;0.05;0.05;;;;;;;9.44;71.55;99430.97;7363120;19;20017;-63
2024/04/02 08:51:21;;;;;;;0.10;0.10;;;;;;;9.72;71.18;99433.34;7365327;19;20037;-63
2024/04/02 08:53:47;;;;;;;0.10;0.10;;;;;;;9.87;71.03;99422.28;7362760;19;20002;-63
2024/04/02 08:56:15;;;;;;;0.10;0.10;;;;;;;10.32;70.30;99444.84;7363644;19;20002;-63
2024/04/02 08:58:41;;;;;;;0.10;0.10;;;;;;;10.57;69.68;99450.72;7365087;19;20811;-63
2024/04/02 09:01:07;;;;;;;0.20;0.20;;;;;;;10.86;69.44;99446.84;7362563;19;20019;-64
2024/04/02 09:03:34;;;;;;;0.10;0.10;;;;;;;11.09;68.75;99431.91;7364002;19;20015;-63
2024/04/02 09:06:02;;;;;;;0.10;0.10;;;;;;;11.52;68.21;99448.25;7364629;19;20005;-63
2024/04/02 09:08:28;;;;;;;0.20;0.20;;;;;;;11.78;67.37;99447.03;7360261;19;19999;-64
2024/04/02 09:10:53;;;;;;;0.10;0.10;;;;;;;12.05;67.06;99461.41;7360395;19;20057;-64
2024/04/02 09:13:20;;;;;;;0.20;0.20;;;;;;;12.34;66.72;99457.38;7361941;19;20442;-64
2024/04/02 09:15:47;;;;;;;0.10;0.10;;;;;;;12.63;66.12;99466.38;7365043;19;20032;-63
2024/04/02 09:18:14;;;;;;;0.10;0.10;;;;;;;12.93;65.77;99470.97;7365334;19;20003;-64
2024/04/02 09:20:39;;;;;;;0.10;0.10;;;;;;;13.16;65.18;99467.97;7361171;19;20379;-63
2024/04/02 09:23:05;;;;;;;0.20;0.20;;;;;;;13.40;64.52;99463.25;7362724;19;20025;-63
2024/04/02 09:25:30;;;;;;;0.10;0.10;;;;;;;13.63;64.47;99467.22;7356343;19;19994;-63
2024/04/02 09:27:55;;;;;;;0.10;0.10;;;;;;;13.85;64.15;99476.56;7361295;19;20115;-63
2024/04/02 09:30:23;;;;;;;0.10;0.10;;;;;;;13.99;63.80;99466.13;7358144;19;20010;-63
2024/04/02 09:32:52;;;;;;;0.10;0.10;;;;;;;14.26;63.84;99469.81;7364340;19;20090;-63
2024/04/02 09:35:46;;;;;;;0.10;0.10;;;;;;;14.61;65.00;99472.19;7364072;19;20026;-63
2024/04/02 09:38:13;;;;;;;0.10;0.10;;;;;;;14.56;62.69;99437.47;7364125;19;20106;-63
2024/04/02 09:40:40;;;;;;;0.10;0.10;;;;;;;15.14;62.69;99475.16;7360830;19;20006;-63
2024/04/02 09:43:08;;;;;;;0.10;0.10;;;;;;;15.42;62.19;99474.31;7357940;19;20011;-63
2024/04/02 09:45:34;;;;;;;0.10;0.10;;;;;;;15.55;61.22;99467.31;7363728;19;19999;-64
2024/04/02 09:48:01;;;;;;;0.10;0.10;;;;;;;15.89;60.94;99473.13;7362991;19;20752;-63
2024/04/02 09:50:29;;;;;;;0.10;0.10;;;;;;;16.11;60.58;99478.69;7363264;19;20002;-63
2024/04/02 09:52:57;;;;;;;0.10;0.10;;;;;;;16.39;60.95;99490.06;7361454;19;20037;-64
2024/04/02 09:55:24;;;;;;;0.10;0.10;;;;;;;16.50;60.15;99482.28;7357385;19;20003;-64
2024/04/02 09:57:50;;;;;;;0.20;0.20;;;;;;;16.59;59.77;99486.94;7357540;19;20011;-63
2024/04/02 10:00:15;;;;;;;0.15;0.15;;;;;;;16.68;60.17;99483.72;7361641;19;20632;-63
2024/04/02 10:02:42;;;;;;;0.10;0.10;;;;;;;16.80;59.81;99482.91;7361156;19;20034;-63
2024/04/02 10:05:10;;;;;;;0.10;0.10;;;;;;;16.96;60.12;99476.56;7363575;19;20002;-63
2024/04/02 10:07:43;;;;;;;0.10;0.10;;;;;;;17.24;60.51;99480.81;7338508;19;20011;-63
2024/04/02 10:10:08;;;;;;;0.10;0.10;;;;;;;17.30;59.19;99486.50;7362310;19;20032;-63
2024/04/02 10:12:34;;;;;;;0.10;0.10;;;;;;;17.43;59.46;99481.19;7360739;19;20597;-63
2024/04/02 10:15:11;;;;;;;0.10;0.10;;;;;;;17.64;60.20;99473.56;7358632;19;20622;-63
2024/04/02 10:17:37;;;;;;;0.10;0.10;;;;;;;17.58;59.02;99447.56;7353888;19;20014;-63
2024/04/02 10:20:15;;;;;;;0.10;0.10;;;;;;;17.73;59.02;99454.44;7356553;19;20003;-63
2024/04/02 10:22:43;;;;;;;0.10;0.10;;;;;;;17.88;59.55;99461.22;7358723;19;20020;-63
2024/04/02 10:25:12;;;;;;;0.10;0.10;;;;;;;17.95;58.63;99469.56;7357099;19;20074;-64
2024/04/02 10:27:42;;;;;;;0.10;0.10;;;;;;;17.96;59.39;99465.97;7356833;19;20003;-63
2024/04/02 10:30:17;;;;;;;0.10;0.10;;;;;;;18.05;60.53;99472.41;7357794;19;20015;-63
2024/04/02 10:32:43;;;;;;;0.10;0.10;;;;;;;17.88;59.07;99450.66;7355954;19;20006;-63
2024/04/02 10:35:21;;;;;;;0.17;0.17;;;;;;;18.20;60.62;99470.41;7358332;19;20023;-63
2024/04/02 10:37:50;;;;;;;0.10;0.10;;;;;;;18.28;59.14;99463.59;7354868;19;19999;-63
2024/04/02 10:40:16;;;;;;;0.10;0.10;;;;;;;18.44;58.87;99457.16;7349960;19;20003;-63
2024/04/02 10:42:44;;;;;;;0.10;0.10;;;;;;;18.79;59.25;99465.94;7356415;19;20090;-63
2024/04/02 10:45:10;;;;;;;0.10;0.10;;;;;;;19.08;57.51;99468.16;7358056;19;20013;-63
2024/04/02 10:47:36;;;;;;;0.10;0.10;;;;;;;19.36;55.85;99467.69;7357256;19;19999;-63
2024/04/02 10:50:05;;;;;;;0.10;0.10;;;;;;;19.56;56.12;99468.75;7361450;19;19998;-63
2024/04/02 10:52:37;;;;;;;0.10;0.10;;;;;;;19.81;57.56;99459.72;7363094;19;20002;-63
2024/04/02 10:55:04;;;;;;;0.10;0.10;;;;;;;19.72;56.57;99447.22;7354701;19;20187;-63
2024/04/02 10:57:31;;;;;;;0.10;0.10;;;;;;;19.86;54.87;99454.03;7360723;19;20899;-63
2024/04/02 10:59:57;;;;;;;;;;;;;;;20.06;60.28;99460.38;7361338;19;20011;-63
2024/04/02 11:02:23;;;;;;;0.10;0.10;;;;;;;19.90;55.99;99451.03;7359132;19;19930;-63
2024/04/02 11:04:48;;;;;;;0.10;0.10;;;;;;;19.97;55.19;99459.31;7359969;19;20461;-63
2024/04/02 11:07:13;;;;;;;0.10;0.10;;;;;;;20.08;55.79;99463.75;7367951;19;19994;-63
2024/04/02 11:09:40;;;;;;;0.20;0.20;;;;;;;20.26;56.70;99461.38;7368294;19;20017;-63
2024/04/02 11:12:07;;;;;;;0.17;0.17;;;;;;;20.44;55.66;99444.78;7368982;19;20580;-63
2024/04/02 11:14:33;;;;;;;0.10;0.10;;;;;;;20.68;55.28;99449.03;7368161;19;20010;-61
2024/04/02 11:16:59;;;;;;;0.10;0.10;;;;;;;20.79;55.67;99441.00;7367662;19;20066;-61
2024/04/02 11:19:24;;;;;;;0.10;0.10;;;;;;;20.88;55.11;99448.19;7364983;19;20089;-61
2024/04/02 11:24:57;;;;;;;0.10;0.10;;;;;;;20.93;55.58;99450.44;7363033;19;20362;-60
2024/04/02 11:27:25;;;;;;;0.10;0.10;;;;;;;20.91;56.03;99453.22;7368942;19;20023;-61
2024/04/02 11:29:50;;;;;;;0.10;0.10;;;;;;;20.79;55.79;99456.09;7368762;19;20017;-61
2024/04/02 11:32:16;;;;;;;0.10;0.10;;;;;;;20.70;55.42;99453.25;7351442;19;20010;-61
2024/04/02 11:34:42;;;;;;;0.10;0.10;;;;;;;20.59;52.97;99453.31;7368478;19;20014;-61
2024/04/02 11:37:07;;;;;;;0.20;0.20;;;;;;;20.45;55.34;99446.47;7367569;19;20010;-61